Bismarck (BIS/KBIS)

Map

Destinations

Information

Location
Bismarck, ND
Local Time
19:57 / 7:57 pm
GMT Time
01:57 / 1:57 am
Gates
Unassigned
No FAA reported delays
METAR KBIS 250152Z 29006KT 10SM CLR 06/M01 A2985 RMK AO2 SLP115 T00611006
TAF KBIS 242320Z 2500/2524 29010KT P6SM SKC FM250500 28004KT P6SM FEW250